createdAt,value
2018-05-25T00:00:00.556Z,15.70
2018-05-25T00:02:28.882Z,15.60
2018-05-25T00:04:56.396Z,15.60
2018-05-25T00:07:23.934Z,15.50
2018-05-25T00:09:51.466Z,15.40
2018-05-25T00:12:18.996Z,15.40
2018-05-25T00:14:46.602Z,15.20
2018-05-25T00:17:14.135Z,15.20
2018-05-25T00:19:41.669Z,15.30
2018-05-25T00:22:09.230Z,15.40
2018-05-25T00:24:36.804Z,15.50
2018-05-25T00:27:04.331Z,15.50
2018-05-25T00:29:31.903Z,15.50
2018-05-25T00:31:59.420Z,15.50
2018-05-25T00:34:26.940Z,15.60
2018-05-25T00:36:54.523Z,15.50
2018-05-25T00:39:22.078Z,15.50
2018-05-25T00:41:49.584Z,15.50
2018-05-25T00:44:31.342Z,15.30
2018-05-25T00:46:58.873Z,15.30
2018-05-25T00:49:26.387Z,15.30
2018-05-25T00:51:53.971Z,15.30
2018-05-25T00:54:21.516Z,15.30
2018-05-25T00:56:49.030Z,15.30
2018-05-25T00:59:16.595Z,15.20
2018-05-25T01:01:44.107Z,15.10
2018-05-25T01:04:11.635Z,15.10
2018-05-25T01:06:39.962Z,15.20
2018-05-25T01:09:07.551Z,15.10
2018-05-25T01:11:35.066Z,15.10
2018-05-25T01:14:02.605Z,15.10
2018-05-25T01:16:30.142Z,14.90
2018-05-25T01:18:58.433Z,14.80
2018-05-25T01:21:25.948Z,14.80
2018-05-25T01:23:53.539Z,14.80
2018-05-25T01:26:21.115Z,14.80
2018-05-25T01:28:48.678Z,14.80
2018-05-25T01:31:16.296Z,14.80
2018-05-25T01:33:43.800Z,14.80
2018-05-25T01:36:11.316Z,14.80
2018-05-25T01:38:38.872Z,14.80
2018-05-25T01:41:06.391Z,14.80
2018-05-25T01:43:33.926Z,14.80
2018-05-25T01:46:01.466Z,14.80
2018-05-25T01:48:28.981Z,14.70
2018-05-25T01:50:56.508Z,14.70
2018-05-25T01:53:24.107Z,14.70
2018-05-25T01:55:51.759Z,14.70
2018-05-25T01:58:19.291Z,14.70
2018-05-25T02:00:46.840Z,14.60
2018-05-25T02:03:14.356Z,14.60
2018-05-25T02:05:41.890Z,14.70
2018-05-25T02:08:09.436Z,14.70
2018-05-25T02:10:36.976Z,14.70
2018-05-25T02:13:04.525Z,14.60
2018-05-25T02:15:32.051Z,14.50
2018-05-25T02:17:59.591Z,14.50
2018-05-25T02:20:27.130Z,14.60
2018-05-25T02:22:54.701Z,14.60
2018-05-25T02:25:22.211Z,14.60
2018-05-25T02:27:49.780Z,14.50
2018-05-25T02:30:17.331Z,14.50
2018-05-25T02:32:44.888Z,14.40
2018-05-25T02:35:12.434Z,14.30
2018-05-25T02:37:40.737Z,14.10
2018-05-25T02:40:08.283Z,14.10
2018-05-25T02:42:35.882Z,14.10
2018-05-25T02:45:03.424Z,14.10
2018-05-25T02:47:30.952Z,14.10
2018-05-25T02:49:59.242Z,14.10
2018-05-25T02:52:26.763Z,14.10
2018-05-25T02:54:54.301Z,14.20
2018-05-25T02:57:21.900Z,14.20
2018-05-25T02:59:49.465Z,14.20
2018-05-25T03:02:17.040Z,14.20
2018-05-25T03:04:44.706Z,14.20
2018-05-25T03:07:12.247Z,14.20
2018-05-25T03:09:39.779Z,14.10
2018-05-25T03:12:08.119Z,13.90
2018-05-25T03:14:35.635Z,13.90
2018-05-25T03:17:03.199Z,13.90
2018-05-25T03:19:31.467Z,14.00
2018-05-25T03:21:59.053Z,14.00
2018-05-25T03:24:26.722Z,14.00
2018-05-25T03:26:54.246Z,14.10
2018-05-25T03:29:21.800Z,14.10
2018-05-25T03:31:49.442Z,14.10
2018-05-25T03:34:16.962Z,14.10
2018-05-25T03:36:44.622Z,14.10
2018-05-25T03:39:12.133Z,14.10
2018-05-25T03:41:40.448Z,14.10
2018-05-25T03:44:08.771Z,14.00
2018-05-25T03:46:36.334Z,14.00
2018-05-25T03:49:03.895Z,14.00
2018-05-25T03:51:31.403Z,14.00
2018-05-25T03:53:58.937Z,13.90
2018-05-25T03:56:26.460Z,13.90
2018-05-25T03:59:05.652Z,13.90
2018-05-25T04:01:45.160Z,13.90
2018-05-25T04:04:12.707Z,13.80
2018-05-25T04:06:40.256Z,13.70
2018-05-25T04:09:07.787Z,13.60
2018-05-25T04:11:35.326Z,13.60
2018-05-25T04:14:08.063Z,13.60
2018-05-25T04:16:35.603Z,13.60
2018-05-25T04:19:04.015Z,13.70
2018-05-25T04:21:32.283Z,13.60
2018-05-25T04:24:00.620Z,13.60
2018-05-25T04:26:28.132Z,13.60
2018-05-25T04:28:55.670Z,13.50
2018-05-25T04:31:23.995Z,13.50
2018-05-25T04:33:51.523Z,13.50
2018-05-25T04:36:19.070Z,13.60
2018-05-25T04:38:47.411Z,13.60
2018-05-25T04:41:14.952Z,13.60
2018-05-25T04:43:42.512Z,13.60
2018-05-25T04:46:10.044Z,13.60
2018-05-25T04:48:37.603Z,13.50
2018-05-25T04:51:05.107Z,13.50
2018-05-25T04:53:32.643Z,13.50
2018-05-25T04:56:00.175Z,13.50
2018-05-25T04:58:27.707Z,13.60
2018-05-25T05:00:56.005Z,13.50
2018-05-25T05:03:28.473Z,13.50
2018-05-25T05:05:56.767Z,13.40
2018-05-25T05:08:24.378Z,13.30
2018-05-25T05:10:51.906Z,13.40
2018-05-25T05:13:19.946Z,13.40
2018-05-25T05:15:47.481Z,13.40
2018-05-25T05:18:15.789Z,13.40
2018-05-25T05:20:43.326Z,13.40
2018-05-25T05:23:11.642Z,13.50
2018-05-25T05:25:39.158Z,13.40
2018-05-25T05:28:07.474Z,13.50
2018-05-25T05:30:35.039Z,13.40
2018-05-25T05:33:02.550Z,13.40
2018-05-25T05:35:30.126Z,13.40
2018-05-25T05:37:57.644Z,13.50
2018-05-25T05:40:25.176Z,13.50
2018-05-25T05:42:52.763Z,13.40
2018-05-25T05:45:20.296Z,13.40
2018-05-25T05:47:47.887Z,13.50
2018-05-25T05:50:15.424Z,13.60
2018-05-25T05:52:42.955Z,13.50
2018-05-25T05:55:10.522Z,13.50
2018-05-25T05:57:38.088Z,13.40
2018-05-25T06:00:05.629Z,13.40
2018-05-25T06:02:33.973Z,13.50
2018-05-25T06:05:15.800Z,13.50
2018-05-25T06:07:43.379Z,13.60
2018-05-25T06:10:10.883Z,13.60
2018-05-25T06:12:39.171Z,13.50
2018-05-25T06:15:06.930Z,13.50
2018-05-25T06:17:34.443Z,13.40
2018-05-25T06:20:02.006Z,13.50
2018-05-25T06:22:29.605Z,13.50
2018-05-25T06:24:57.133Z,13.50
2018-05-25T06:27:24.644Z,13.60
2018-05-25T06:29:52.171Z,13.60
2018-05-25T06:32:19.722Z,13.60
2018-05-25T06:34:47.310Z,13.60
2018-05-25T06:37:14.864Z,13.60
2018-05-25T06:39:42.455Z,13.60
2018-05-25T06:42:09.998Z,13.60
2018-05-25T06:44:37.530Z,13.70
2018-05-25T06:47:05.091Z,13.70
2018-05-25T06:49:32.619Z,13.80
2018-05-25T06:52:00.138Z,13.90
2018-05-25T06:54:27.662Z,14.00
2018-05-25T06:56:55.182Z,14.00
2018-05-25T06:59:22.715Z,14.00
2018-05-25T07:01:50.249Z,14.00
2018-05-25T07:04:17.806Z,13.80
2018-05-25T07:06:45.342Z,13.70
2018-05-25T07:09:12.873Z,13.70
2018-05-25T07:11:40.415Z,13.70
2018-05-25T07:14:07.940Z,13.90
2018-05-25T07:16:35.466Z,14.30
2018-05-25T07:19:03.764Z,15.40
2018-05-25T07:21:31.307Z,15.40
2018-05-25T07:23:58.844Z,15.90
2018-05-25T07:26:26.385Z,16.40
2018-05-25T07:28:53.915Z,16.70
2018-05-25T07:31:21.420Z,17.00
2018-05-25T07:33:48.983Z,17.20
2018-05-25T07:36:16.513Z,17.50
2018-05-25T07:38:44.035Z,17.90
2018-05-25T07:41:11.620Z,18.20
2018-05-25T07:43:39.682Z,18.60
2018-05-25T07:46:07.305Z,18.90
2018-05-25T07:48:34.903Z,19.20
2018-05-25T07:51:02.515Z,19.50
2018-05-25T07:53:30.890Z,20.00
2018-05-25T07:55:58.504Z,19.90
2018-05-25T07:58:26.141Z,20.20
2018-05-25T08:00:53.735Z,20.40
2018-05-25T08:03:21.524Z,20.50
2018-05-25T08:05:49.160Z,20.60
2018-05-25T08:08:16.789Z,20.60
2018-05-25T08:10:44.460Z,20.70
2018-05-25T08:13:12.048Z,20.80
2018-05-25T08:15:39.655Z,20.90
2018-05-25T08:18:07.299Z,21.00
2018-05-25T08:20:34.959Z,21.10
2018-05-25T08:23:03.363Z,21.30
2018-05-25T08:25:30.988Z,21.20
2018-05-25T08:27:59.342Z,21.50
2018-05-25T08:30:26.961Z,21.50
2018-05-25T08:32:54.580Z,21.40
2018-05-25T08:35:22.129Z,21.40
2018-05-25T08:37:49.842Z,21.50
2018-05-25T08:40:17.439Z,21.60
2018-05-25T08:42:45.055Z,21.60
2018-05-25T08:45:12.687Z,21.80
2018-05-25T08:47:40.253Z,22.00
2018-05-25T08:50:07.856Z,21.80
2018-05-25T08:52:35.551Z,21.90
2018-05-25T08:55:03.110Z,22.00
2018-05-25T08:57:30.704Z,22.20
2018-05-25T08:59:58.308Z,22.40
2018-05-25T09:02:25.922Z,22.60
2018-05-25T09:04:54.318Z,22.60
2018-05-25T09:07:21.905Z,22.60
2018-05-25T09:09:49.488Z,22.60
2018-05-25T09:12:17.130Z,22.70
2018-05-25T09:14:44.750Z,22.60
2018-05-25T09:17:12.308Z,22.60
2018-05-25T09:19:39.933Z,22.70
2018-05-25T09:22:07.551Z,22.80
2018-05-25T09:24:35.141Z,22.70
2018-05-25T09:27:02.772Z,22.80
2018-05-25T09:29:30.358Z,22.80
2018-05-25T09:31:57.953Z,22.90
2018-05-25T09:34:26.357Z,23.10
2018-05-25T09:36:53.971Z,23.10
2018-05-25T09:39:21.571Z,23.20
2018-05-25T09:41:49.218Z,23.30
2018-05-25T09:44:21.996Z,23.40
2018-05-25T09:46:49.627Z,23.40
2018-05-25T09:49:17.223Z,23.50
2018-05-25T09:51:44.906Z,23.70
2018-05-25T09:54:12.574Z,24.00
2018-05-25T09:56:59.756Z,24.10
2018-05-25T09:59:27.386Z,24.10
2018-05-25T10:01:54.977Z,24.10
2018-05-25T10:04:27.675Z,24.10
2018-05-25T10:06:55.219Z,24.10
2018-05-25T10:09:23.495Z,24.00
2018-05-25T10:11:51.046Z,24.00
2018-05-25T10:14:33.699Z,24.30
2018-05-25T10:17:01.243Z,24.30
2018-05-25T10:19:28.876Z,24.30
2018-05-25T10:21:56.730Z,24.20
2018-05-25T10:24:24.354Z,24.40
2018-05-25T10:26:51.991Z,24.60
2018-05-25T10:29:19.594Z,24.80
2018-05-25T10:31:47.243Z,25.00
2018-05-25T10:34:14.865Z,25.10
2018-05-25T10:36:42.480Z,25.10
2018-05-25T10:39:10.126Z,25.00
2018-05-25T10:41:37.751Z,25.00
2018-05-25T10:44:05.327Z,25.00
2018-05-25T10:46:32.836Z,24.90
2018-05-25T10:49:00.367Z,24.90
2018-05-25T10:51:27.915Z,25.10
2018-05-25T10:53:55.454Z,25.30
2018-05-25T10:56:23.001Z,25.60
2018-05-25T10:58:50.523Z,25.90
2018-05-25T11:01:18.079Z,25.90
2018-05-25T11:03:45.637Z,25.90
2018-05-25T11:06:13.181Z,26.00
2018-05-25T11:08:40.737Z,26.10
2018-05-25T11:11:08.422Z,26.20
2018-05-25T11:13:36.783Z,26.40
2018-05-25T11:16:04.419Z,26.40
2018-05-25T11:18:32.077Z,26.40
2018-05-25T11:20:59.745Z,26.40
2018-05-25T11:23:28.070Z,26.60
2018-05-25T11:25:55.684Z,26.60
2018-05-25T11:28:23.326Z,26.60
2018-05-25T11:30:50.916Z,26.70
2018-05-25T11:33:18.666Z,26.70
2018-05-25T11:35:46.207Z,26.60
2018-05-25T11:38:14.217Z,26.40
2018-05-25T11:40:41.747Z,26.20
2018-05-25T11:43:09.289Z,26.10
2018-05-25T11:45:37.562Z,25.90
2018-05-25T11:48:05.151Z,25.90
2018-05-25T11:50:32.671Z,26.00
2018-05-25T11:53:00.231Z,25.90
2018-05-25T11:55:27.773Z,25.90
2018-05-25T11:57:55.351Z,25.80
2018-05-25T12:00:22.904Z,25.60
2018-05-25T12:02:50.443Z,25.50
2018-05-25T12:05:27.770Z,25.50
2018-05-25T12:07:55.299Z,25.50
2018-05-25T12:10:23.605Z,25.70
2018-05-25T12:12:51.176Z,25.60
2018-05-25T12:15:18.690Z,26.10
2018-05-25T12:17:46.234Z,26.40
2018-05-25T12:20:13.813Z,26.80
2018-05-25T12:22:41.342Z,27.10
2018-05-25T12:25:08.968Z,26.90
2018-05-25T12:27:37.350Z,26.90
2018-05-25T12:30:04.991Z,26.90
2018-05-25T12:32:32.569Z,27.10
2018-05-25T12:35:00.192Z,27.00
2018-05-25T12:37:27.823Z,26.80
2018-05-25T12:39:56.212Z,26.40
2018-05-25T12:42:23.835Z,26.40
2018-05-25T12:45:03.013Z,26.60
2018-05-25T12:47:30.632Z,26.60
2018-05-25T12:49:58.289Z,26.50
2018-05-25T12:52:25.910Z,26.50
2018-05-25T12:54:53.523Z,26.30
2018-05-25T12:57:21.138Z,26.20
2018-05-25T12:59:48.728Z,26.10
2018-05-25T13:02:16.363Z,25.90
2018-05-25T13:04:43.963Z,25.90
2018-05-25T13:07:11.570Z,26.10
2018-05-25T13:09:39.156Z,26.50
2018-05-25T13:12:06.710Z,26.80
2018-05-25T13:14:34.280Z,27.10
2018-05-25T13:17:01.891Z,27.50
2018-05-25T13:19:29.520Z,27.60
2018-05-25T13:21:57.164Z,27.60
2018-05-25T13:24:24.780Z,27.50
2018-05-25T13:26:52.449Z,27.60
2018-05-25T13:29:19.999Z,27.70
2018-05-25T13:31:47.600Z,27.80
2018-05-25T13:34:15.783Z,27.90
2018-05-25T13:36:43.399Z,28.10
2018-05-25T13:39:11.026Z,28.30
2018-05-25T13:41:39.388Z,28.40
2018-05-25T13:44:06.994Z,28.30
2018-05-25T13:46:34.560Z,28.30
2018-05-25T13:49:02.164Z,28.30
2018-05-25T13:51:29.755Z,28.40
2018-05-25T13:53:57.338Z,28.60
2018-05-25T13:56:24.921Z,28.50
2018-05-25T13:58:52.509Z,28.50
2018-05-25T14:01:20.168Z,28.70
2018-05-25T14:03:47.751Z,28.60
2018-05-25T14:06:15.385Z,28.60
2018-05-25T14:08:43.725Z,29.10
2018-05-25T14:11:11.338Z,29.00
2018-05-25T14:13:38.964Z,29.20
2018-05-25T14:16:06.610Z,29.10
2018-05-25T14:18:34.268Z,29.10
2018-05-25T14:21:01.870Z,29.00
2018-05-25T14:23:29.466Z,28.90
2018-05-25T14:25:57.064Z,28.70
2018-05-25T14:28:24.688Z,28.50
2018-05-25T14:30:52.270Z,28.20
2018-05-25T14:33:19.832Z,27.90
2018-05-25T14:35:47.453Z,27.70
2018-05-25T14:38:15.095Z,27.50
2018-05-25T14:40:43.521Z,27.40
2018-05-25T14:43:11.125Z,27.30
2018-05-25T14:45:38.744Z,27.40
2018-05-25T14:48:06.368Z,27.40
2018-05-25T14:50:33.963Z,27.40
2018-05-25T14:53:01.596Z,27.40
2018-05-25T14:55:29.119Z,27.40
2018-05-25T14:57:56.638Z,27.40
2018-05-25T15:00:24.229Z,27.30
2018-05-25T15:02:51.754Z,27.30
2018-05-25T15:05:19.296Z,27.10
2018-05-25T15:07:46.823Z,27.10
2018-05-25T15:10:15.119Z,27.00
2018-05-25T15:12:43.461Z,27.00
2018-05-25T15:15:10.993Z,27.00
2018-05-25T15:17:38.515Z,27.00
2018-05-25T15:20:06.116Z,27.00
2018-05-25T15:22:33.626Z,27.00
2018-05-25T15:25:01.184Z,26.90
2018-05-25T15:27:29.487Z,27.10
2018-05-25T15:29:57.033Z,27.00
2018-05-25T15:32:24.580Z,27.00
2018-05-25T15:34:52.131Z,26.90
2018-05-25T15:37:20.420Z,26.90
2018-05-25T15:39:47.939Z,26.90
2018-05-25T15:42:15.488Z,27.10
2018-05-25T15:44:43.023Z,27.30
2018-05-25T15:47:10.843Z,27.40
2018-05-25T15:49:38.337Z,27.60
2018-05-25T15:52:05.875Z,27.60
2018-05-25T15:54:34.179Z,27.60
2018-05-25T15:57:01.758Z,27.60
2018-05-25T15:59:29.295Z,27.50
2018-05-25T16:01:56.856Z,27.50
2018-05-25T16:04:24.532Z,27.60
2018-05-25T16:06:52.205Z,27.70
2018-05-25T16:09:19.815Z,27.80
2018-05-25T16:11:47.444Z,27.90
2018-05-25T16:14:15.983Z,27.80
2018-05-25T16:16:44.378Z,27.80
2018-05-25T16:19:11.987Z,27.70
2018-05-25T16:21:39.620Z,27.60
2018-05-25T16:24:07.237Z,27.40
2018-05-25T16:26:34.842Z,27.10
2018-05-25T16:29:02.482Z,26.70
2018-05-25T16:31:30.119Z,26.50
2018-05-25T16:33:57.755Z,26.30
2018-05-25T16:36:25.359Z,26.10
2018-05-25T16:38:53.005Z,25.90
2018-05-25T16:41:20.636Z,25.80
2018-05-25T16:43:48.204Z,25.70
2018-05-25T16:46:15.797Z,25.50
2018-05-25T16:48:43.431Z,25.40
2018-05-25T16:51:11.041Z,25.30
2018-05-25T16:53:39.454Z,25.20
2018-05-25T16:56:07.069Z,25.20
2018-05-25T16:58:34.714Z,25.30
2018-05-25T17:01:02.340Z,25.20
2018-05-25T17:03:29.973Z,25.10
2018-05-25T17:05:58.388Z,24.80
2018-05-25T17:08:26.744Z,24.60
2018-05-25T17:10:54.324Z,24.60
2018-05-25T17:13:21.905Z,24.60
2018-05-25T17:15:49.491Z,24.50
2018-05-25T17:18:17.095Z,24.40
2018-05-25T17:20:44.744Z,24.40
2018-05-25T17:23:12.284Z,24.30
2018-05-25T17:25:39.786Z,24.20
2018-05-25T17:28:07.334Z,24.20
2018-05-25T17:30:34.982Z,24.20
2018-05-25T17:33:02.398Z,24.10
2018-05-25T17:35:29.919Z,24.00
2018-05-25T17:37:57.476Z,23.90
2018-05-25T17:40:25.025Z,23.80
2018-05-25T17:42:52.565Z,23.80
2018-05-25T17:45:20.103Z,23.60
2018-05-25T17:47:48.456Z,23.50
2018-05-25T17:50:15.983Z,23.50
2018-05-25T17:52:43.535Z,23.40
2018-05-25T17:55:11.139Z,23.30
2018-05-25T17:57:38.653Z,23.30
2018-05-25T18:00:06.213Z,23.20
2018-05-25T18:02:33.744Z,23.20
2018-05-25T18:05:11.000Z,23.10
2018-05-25T18:07:38.513Z,23.00
2018-05-25T18:10:06.075Z,23.00
2018-05-25T18:12:33.615Z,23.00
2018-05-25T18:15:01.132Z,22.90
2018-05-25T18:17:28.726Z,22.90
2018-05-25T18:19:56.188Z,22.80
2018-05-25T18:22:23.729Z,22.60
2018-05-25T18:24:52.019Z,22.30
2018-05-25T18:27:19.779Z,22.30
2018-05-25T18:29:48.056Z,22.20
2018-05-25T18:32:15.580Z,22.20
2018-05-25T18:34:43.166Z,22.10
2018-05-25T18:37:10.699Z,22.00
2018-05-25T18:39:38.252Z,21.90
2018-05-25T18:42:05.801Z,21.70
2018-05-25T18:44:33.327Z,21.50
2018-05-25T18:47:00.939Z,21.40
2018-05-25T18:49:28.488Z,21.30
2018-05-25T18:51:56.073Z,21.20
2018-05-25T18:54:32.432Z,21.20
2018-05-25T18:57:00.037Z,21.20
2018-05-25T18:59:27.554Z,21.20
2018-05-25T19:01:55.831Z,21.00
2018-05-25T19:04:23.496Z,21.00
2018-05-25T19:06:51.002Z,20.90
2018-05-25T19:09:18.531Z,20.70
2018-05-25T19:11:46.068Z,20.60
2018-05-25T19:14:18.571Z,20.50
2018-05-25T19:16:46.103Z,20.40
2018-05-25T19:19:14.384Z,20.40
2018-05-25T19:21:41.905Z,20.40
2018-05-25T19:24:09.464Z,20.40
2018-05-25T19:26:36.991Z,20.40
2018-05-25T19:29:04.507Z,20.40
2018-05-25T19:31:32.030Z,20.30
2018-05-25T19:33:59.567Z,20.20
2018-05-25T19:36:27.133Z,20.20
2018-05-25T19:38:54.660Z,20.10
2018-05-25T19:41:22.173Z,20.10
2018-05-25T19:43:49.743Z,20.10
2018-05-25T19:46:17.321Z,20.00
2018-05-25T19:48:44.914Z,19.90
2018-05-25T19:51:12.423Z,19.90
2018-05-25T19:53:40.910Z,19.90
2018-05-25T19:56:09.204Z,19.90
2018-05-25T19:58:36.757Z,19.90
2018-05-25T20:01:04.300Z,20.00
2018-05-25T20:03:32.611Z,20.20
2018-05-25T20:06:00.183Z,20.10
2018-05-25T20:08:27.761Z,20.10
2018-05-25T20:10:55.320Z,20.00
2018-05-25T20:13:22.866Z,20.00
2018-05-25T20:15:50.447Z,19.80
2018-05-25T20:18:18.004Z,19.80
2018-05-25T20:20:45.542Z,19.70
2018-05-25T20:23:13.133Z,19.70
2018-05-25T20:25:40.674Z,19.70
2018-05-25T20:28:08.200Z,19.70
2018-05-25T20:30:35.731Z,19.70
2018-05-25T20:33:04.010Z,19.60
2018-05-25T20:35:31.825Z,19.60
2018-05-25T20:37:59.357Z,19.60
2018-05-25T20:40:26.883Z,19.60
2018-05-25T20:42:54.418Z,19.60
2018-05-25T20:45:21.937Z,19.50
2018-05-25T20:47:49.457Z,19.40
2018-05-25T20:50:17.000Z,19.40
2018-05-25T20:52:44.599Z,19.40
2018-05-25T20:55:12.158Z,19.40
2018-05-25T20:57:39.667Z,19.40
2018-05-25T21:00:07.209Z,19.50
2018-05-25T21:02:34.727Z,19.50
2018-05-25T21:05:02.252Z,19.50
2018-05-25T21:07:29.777Z,19.50
2018-05-25T21:09:57.291Z,19.40
2018-05-25T21:12:24.800Z,19.40
2018-05-25T21:14:52.342Z,19.40
2018-05-25T21:17:19.843Z,19.30
2018-05-25T21:19:47.389Z,19.30
2018-05-25T21:22:14.911Z,19.30
2018-05-25T21:24:42.610Z,19.30
2018-05-25T21:27:10.140Z,19.40
2018-05-25T21:29:37.648Z,19.30
2018-05-25T21:32:05.189Z,19.20
2018-05-25T21:34:33.871Z,19.10
2018-05-25T21:37:01.454Z,19.10
2018-05-25T21:39:29.745Z,19.10
2018-05-25T21:41:57.281Z,19.10
2018-05-25T21:44:24.824Z,19.10
2018-05-25T21:46:52.368Z,19.20
2018-05-25T21:49:19.967Z,19.20
2018-05-25T21:51:48.327Z,19.30
2018-05-25T21:54:15.863Z,19.30
2018-05-25T21:56:43.382Z,19.30
2018-05-25T21:59:10.915Z,19.30
2018-05-25T22:01:38.456Z,19.30
2018-05-25T22:04:06.015Z,19.30
2018-05-25T22:06:33.528Z,19.30
2018-05-25T22:09:01.124Z,19.30
2018-05-25T22:11:28.646Z,19.30
2018-05-25T22:13:56.192Z,19.30
2018-05-25T22:16:23.732Z,19.30
2018-05-25T22:18:52.008Z,19.30
2018-05-25T22:21:20.286Z,19.30
2018-05-25T22:23:52.954Z,19.30
2018-05-25T22:26:20.466Z,19.30
2018-05-25T22:28:47.995Z,19.40
2018-05-25T22:31:15.511Z,19.40
2018-05-25T22:33:43.049Z,19.40
2018-05-25T22:36:10.598Z,19.40
2018-05-25T22:38:38.186Z,19.40
2018-05-25T22:41:05.801Z,19.50
2018-05-25T22:43:44.912Z,19.50
2018-05-25T22:46:24.267Z,19.50
2018-05-25T22:49:03.394Z,19.40
2018-05-25T22:51:42.882Z,19.50
2018-05-25T22:54:15.934Z,19.50
2018-05-25T22:56:43.470Z,19.50
2018-05-25T22:59:10.991Z,19.40
2018-05-25T23:01:38.518Z,19.40
2018-05-25T23:04:06.071Z,19.50
2018-05-25T23:06:33.614Z,19.50
2018-05-25T23:09:01.139Z,19.50
2018-05-25T23:11:29.410Z,19.50
2018-05-25T23:13:57.708Z,19.50
2018-05-25T23:16:25.231Z,19.50
2018-05-25T23:18:52.746Z,19.50
2018-05-25T23:21:20.353Z,19.40
2018-05-25T23:23:47.870Z,19.40
2018-05-25T23:26:15.391Z,19.40
2018-05-25T23:28:42.919Z,19.30
2018-05-25T23:31:10.510Z,19.30
2018-05-25T23:33:38.018Z,19.20
2018-05-25T23:36:05.583Z,19.20
2018-05-25T23:38:33.115Z,19.10
2018-05-25T23:41:00.630Z,19.10
2018-05-25T23:43:28.154Z,18.90
2018-05-25T23:45:55.693Z,18.80
2018-05-25T23:48:23.215Z,18.60
2018-05-25T23:50:50.714Z,18.50
2018-05-25T23:53:18.232Z,18.50
2018-05-25T23:55:45.779Z,18.50
2018-05-25T23:58:14.084Z,18.50
